createdAt,value
2017-11-22T00:00:05.453Z,1.65
2017-11-22T00:02:31.479Z,1.48
2017-11-22T00:04:57.626Z,1.90
2017-11-22T00:07:23.717Z,1.35
2017-11-22T00:09:49.848Z,1.77
2017-11-22T00:12:15.873Z,1.55
2017-11-22T00:14:41.876Z,1.50
2017-11-22T00:17:08.028Z,1.65
2017-11-22T00:19:34.183Z,1.80
2017-11-22T00:22:00.286Z,1.45
2017-11-22T00:24:27.037Z,2.22
2017-11-22T00:26:55.160Z,2.10
2017-11-22T00:29:21.955Z,3.37
2017-11-22T00:31:50.121Z,2.93
2017-11-22T00:34:16.656Z,2.80
2017-11-22T00:36:43.006Z,2.55
2017-11-22T00:39:09.861Z,1.80
2017-11-22T00:41:36.281Z,2.40
2017-11-22T00:44:02.688Z,2.05
2017-11-22T00:46:28.937Z,2.55
2017-11-22T00:48:55.295Z,1.70
2017-11-22T00:51:21.636Z,2.70
2017-11-22T00:53:47.968Z,2.33
2017-11-22T00:56:14.417Z,2.70
2017-11-22T00:58:40.820Z,1.95
2017-11-22T01:01:07.300Z,2.47
2017-11-22T01:03:33.696Z,2.10
2017-11-22T01:06:00.050Z,2.20
2017-11-22T01:08:26.636Z,2.12
2017-11-22T01:10:53.142Z,2.00
2017-11-22T01:13:19.491Z,2.00
2017-11-22T01:15:45.896Z,1.85
2017-11-22T01:18:12.244Z,1.60
2017-11-22T01:20:38.895Z,1.80
2017-11-22T01:23:05.345Z,1.70
2017-11-22T01:25:31.646Z,1.70
2017-11-22T01:27:58.076Z,1.37
2017-11-22T01:30:24.485Z,1.75
2017-11-22T01:32:51.350Z,1.52
2017-11-22T01:35:17.748Z,1.65
2017-11-22T01:37:44.208Z,1.75
2017-11-22T01:40:10.798Z,1.90
2017-11-22T01:42:37.188Z,1.95
2017-11-22T01:45:03.794Z,1.20
2017-11-22T01:47:30.194Z,1.62
2017-11-22T01:49:56.572Z,1.40
2017-11-22T01:52:22.997Z,1.58
2017-11-22T01:54:49.548Z,1.60
2017-11-22T01:57:16.213Z,2.10
2017-11-22T01:59:42.660Z,1.73
2017-11-22T02:02:09.043Z,1.70
2017-11-22T02:04:35.415Z,1.35
2017-11-22T02:07:01.975Z,1.50
2017-11-22T02:09:28.405Z,1.50
2017-11-22T02:11:54.729Z,1.85
2017-11-22T02:14:21.069Z,1.80
2017-11-22T02:16:47.256Z,1.60
2017-11-22T02:19:13.519Z,1.75
2017-11-22T02:21:40.030Z,1.95
2017-11-22T02:24:06.464Z,2.80
2017-11-22T02:26:32.904Z,2.25
2017-11-22T02:28:59.446Z,2.10
2017-11-22T02:31:25.856Z,1.80
2017-11-22T02:33:52.455Z,1.75
2017-11-22T02:36:18.731Z,1.65
2017-11-22T02:38:45.460Z,2.17
2017-11-22T02:41:11.853Z,1.85
2017-11-22T02:43:38.299Z,1.67
2017-11-22T02:46:04.670Z,1.25
2017-11-22T02:48:31.024Z,2.22
2017-11-22T02:50:57.529Z,1.87
2017-11-22T02:53:24.121Z,2.45
2017-11-22T02:55:50.637Z,2.10
2017-11-22T02:58:17.243Z,2.90
2017-11-22T03:00:43.657Z,2.00
2017-11-22T03:03:09.996Z,2.05
2017-11-22T03:05:36.697Z,2.25
2017-11-22T03:08:02.966Z,2.60
2017-11-22T03:10:29.141Z,2.37
2017-11-22T03:12:55.369Z,2.10
2017-11-22T03:15:21.827Z,1.80
2017-11-22T03:17:48.037Z,1.83
2017-11-22T03:20:14.497Z,1.87
2017-11-22T03:22:40.906Z,1.90
2017-11-22T03:25:07.394Z,2.78
2017-11-22T03:27:33.768Z,1.83
2017-11-22T03:30:03.074Z,2.10
2017-11-22T03:32:29.500Z,1.52
2017-11-22T03:34:56.102Z,1.60
2017-11-22T03:37:22.643Z,1.55
2017-11-22T03:39:48.923Z,1.75
2017-11-22T03:42:15.400Z,1.70
2017-11-22T03:44:41.657Z,1.20
2017-11-22T03:47:07.989Z,1.85
2017-11-22T03:49:40.297Z,1.70
2017-11-22T03:52:12.707Z,1.55
2017-11-22T03:54:39.037Z,2.28
2017-11-22T03:57:05.777Z,2.08
2017-11-22T03:59:32.035Z,2.25
2017-11-22T04:01:58.583Z,2.20
2017-11-22T04:04:27.307Z,2.05
2017-11-22T04:06:54.860Z,1.55
2017-11-22T04:09:21.284Z,2.10
2017-11-22T04:11:47.823Z,2.10
2017-11-22T04:14:14.296Z,1.90
2017-11-22T04:16:40.546Z,2.00
2017-11-22T04:19:13.021Z,1.60
2017-11-22T04:21:39.487Z,2.00
2017-11-22T04:24:05.815Z,1.80
2017-11-22T04:26:32.163Z,1.80
2017-11-22T04:28:58.598Z,1.65
2017-11-22T04:31:25.131Z,2.53
2017-11-22T04:33:51.955Z,2.08
2017-11-22T04:36:18.390Z,1.60
2017-11-22T04:38:44.901Z,1.83
2017-11-22T04:41:11.135Z,1.50
2017-11-22T04:43:37.478Z,1.65
2017-11-22T04:46:03.953Z,1.95
2017-11-22T04:48:30.449Z,6.97
2017-11-22T04:50:57.048Z,4.78
2017-11-22T04:53:23.282Z,4.82
2017-11-22T04:55:49.841Z,4.70
2017-11-22T04:58:16.335Z,4.05
2017-11-22T05:00:43.040Z,3.60
2017-11-22T05:03:09.592Z,5.75
2017-11-22T05:05:36.068Z,3.50
2017-11-22T05:08:02.373Z,3.55
2017-11-22T05:10:29.014Z,3.67
2017-11-22T05:12:55.356Z,3.05
2017-11-22T05:15:21.733Z,3.60
2017-11-22T05:17:48.230Z,3.20
2017-11-22T05:20:15.673Z,4.12
2017-11-22T05:22:42.213Z,3.25
2017-11-22T05:25:08.582Z,3.53
2017-11-22T05:27:34.889Z,3.40
2017-11-22T05:30:01.235Z,2.87
2017-11-22T05:32:27.866Z,2.90
2017-11-22T05:34:54.318Z,2.15
2017-11-22T05:37:20.728Z,2.50
2017-11-22T05:39:46.784Z,2.60
2017-11-22T05:42:12.786Z,2.50
2017-11-22T05:44:39.266Z,3.03
2017-11-22T05:47:05.343Z,3.12
2017-11-22T05:49:31.358Z,3.10
2017-11-22T05:51:57.542Z,2.40
2017-11-22T05:54:23.798Z,2.75
2017-11-22T05:56:50.156Z,3.30
2017-11-22T05:59:16.202Z,2.60
2017-11-22T06:01:42.308Z,2.75
2017-11-22T06:04:08.670Z,2.50
2017-11-22T06:06:34.952Z,2.45
2017-11-22T06:09:01.059Z,2.22
2017-11-22T06:11:27.115Z,2.17
2017-11-22T06:13:53.517Z,2.25
2017-11-22T06:16:19.657Z,2.72
2017-11-22T06:18:45.788Z,2.67
2017-11-22T06:21:11.889Z,2.30
2017-11-22T06:23:38.040Z,2.90
2017-11-22T06:26:06.118Z,2.85
2017-11-22T06:28:32.339Z,2.78
2017-11-22T06:33:34.976Z,2.20
2017-11-22T06:36:07.223Z,2.05
2017-11-22T06:38:33.473Z,1.70
2017-11-22T06:40:59.963Z,2.10
2017-11-22T06:43:26.554Z,2.20
2017-11-22T06:45:53.125Z,2.10
2017-11-22T06:48:19.470Z,1.87
2017-11-22T06:50:45.890Z,1.73
2017-11-22T06:53:12.700Z,2.28
2017-11-22T06:55:39.187Z,2.25
2017-11-22T06:58:05.859Z,2.72
2017-11-22T07:00:32.107Z,2.80
2017-11-22T07:03:00.215Z,2.92
2017-11-22T07:05:26.455Z,2.50
2017-11-22T07:07:52.593Z,2.65
2017-11-22T07:10:18.830Z,2.10
2017-11-22T07:12:45.143Z,3.60
2017-11-22T07:15:14.234Z,3.10
2017-11-22T07:17:41.487Z,2.75
2017-11-22T07:20:07.845Z,5.15
2017-11-22T07:22:34.148Z,4.85
2017-11-22T07:25:00.582Z,3.95
2017-11-22T07:27:26.835Z,3.65
2017-11-22T07:29:53.549Z,3.47
2017-11-22T07:32:24.120Z,3.05
2017-11-22T07:34:54.510Z,2.90
2017-11-22T07:37:27.501Z,2.83
2017-11-22T07:39:54.321Z,2.40
2017-11-22T07:42:25.997Z,2.20
2017-11-22T07:44:52.720Z,2.60
2017-11-22T07:47:18.906Z,2.30
2017-11-22T07:49:44.999Z,2.30
2017-11-22T07:52:14.624Z,2.00
2017-11-22T07:54:41.855Z,1.95
2017-11-22T07:57:10.177Z,2.33
2017-11-22T07:59:36.455Z,2.40
2017-11-22T08:02:02.928Z,1.80
2017-11-22T08:04:29.160Z,2.10
2017-11-22T08:06:57.718Z,2.40
2017-11-22T08:09:24.210Z,2.08
2017-11-22T08:11:50.847Z,2.30
2017-11-22T08:14:17.144Z,2.60
2017-11-22T08:16:43.687Z,3.30
2017-11-22T08:19:10.181Z,2.92
2017-11-22T08:21:38.559Z,2.95
2017-11-22T08:24:04.898Z,2.75
2017-11-22T08:26:31.355Z,2.40
2017-11-22T08:28:57.647Z,2.60
2017-11-22T08:31:24.081Z,2.78
2017-11-22T08:33:50.481Z,2.65
2017-11-22T08:36:17.101Z,2.53
2017-11-22T08:38:43.499Z,2.87
2017-11-22T08:41:10.031Z,3.05
2017-11-22T08:43:36.531Z,3.20
2017-11-22T08:46:03.804Z,3.03
2017-11-22T08:48:30.228Z,3.30
2017-11-22T08:50:56.480Z,4.20
2017-11-22T08:53:23.024Z,3.72
2017-11-22T08:55:55.456Z,5.00
2017-11-22T08:58:25.684Z,3.20
2017-11-22T09:00:52.570Z,4.50
2017-11-22T09:03:23.312Z,5.50
2017-11-22T09:05:49.758Z,4.60
2017-11-22T09:08:16.503Z,4.28
2017-11-22T09:10:42.962Z,4.32
2017-11-22T09:13:15.121Z,4.70
2017-11-22T09:15:41.507Z,6.37
2017-11-22T09:18:12.866Z,6.65
2017-11-22T09:20:39.315Z,5.70
2017-11-22T09:23:06.059Z,5.40
2017-11-22T09:25:36.795Z,5.55
2017-11-22T09:28:03.346Z,5.72
2017-11-22T09:30:29.879Z,5.22
2017-11-22T09:35:46.398Z,5.53
2017-11-22T09:38:16.857Z,5.47
2017-11-22T09:40:44.464Z,5.30
2017-11-22T09:43:24.072Z,5.10
2017-11-22T09:45:50.859Z,5.55
2017-11-22T09:48:22.369Z,5.50
2017-11-22T09:50:49.579Z,5.45
2017-11-22T09:53:18.693Z,5.15
2017-11-22T09:55:45.350Z,4.50
2017-11-22T09:58:12.088Z,4.82
2017-11-22T10:00:45.852Z,4.40
2017-11-22T10:03:12.495Z,5.25
2017-11-22T10:05:43.413Z,5.20
2017-11-22T10:08:17.860Z,4.30
2017-11-22T10:10:50.140Z,4.43
2017-11-22T10:13:37.014Z,4.53
2017-11-22T10:49:13.432Z,4.63
2017-11-22T10:51:43.152Z,4.10
2017-11-22T10:54:11.907Z,3.87
2017-11-22T11:01:57.155Z,3.63
2017-11-22T11:04:28.117Z,4.40
2017-11-22T11:06:59.418Z,3.97
2017-11-22T11:12:12.456Z,3.70
2017-11-22T11:14:41.725Z,3.77
2017-11-22T11:17:10.045Z,3.50
2017-11-22T11:19:46.753Z,3.50
2017-11-22T11:22:14.935Z,3.60
2017-11-22T11:24:46.829Z,3.20
2017-11-22T11:27:22.366Z,3.47
2017-11-22T11:29:53.966Z,2.60
2017-11-22T11:32:29.942Z,3.10
2017-11-22T11:34:56.112Z,2.97
2017-11-22T11:37:22.346Z,2.80
2017-11-22T11:39:48.477Z,2.97
2017-11-22T11:42:14.694Z,2.70
2017-11-22T11:44:40.843Z,2.97
2017-11-22T11:47:07.025Z,3.00
2017-11-22T11:49:33.152Z,2.77
2017-11-22T11:51:59.412Z,3.00
2017-11-22T11:54:27.822Z,3.17
2017-11-22T11:56:55.013Z,3.23
2017-11-22T11:59:22.026Z,3.63
2017-11-22T12:01:49.161Z,2.47
2017-11-22T12:04:15.397Z,2.80
2017-11-22T12:06:41.918Z,2.40
2017-11-22T12:09:09.963Z,2.77
2017-11-22T12:11:39.539Z,2.20
2017-11-22T12:14:07.318Z,3.20
2017-11-22T12:16:34.262Z,2.53
2017-11-22T12:19:02.602Z,2.30
2017-11-22T12:45:53.977Z,2.50
2017-11-22T12:48:21.375Z,2.57
2017-11-22T12:50:47.946Z,2.07
2017-11-22T12:53:14.152Z,2.57
2017-11-22T12:55:40.685Z,3.30
2017-11-22T12:58:06.817Z,2.97
2017-11-22T13:00:33.100Z,2.50
2017-11-22T13:03:00.224Z,2.40
2017-11-22T13:05:26.325Z,2.30
2017-11-22T13:07:52.737Z,2.63
2017-11-22T13:10:18.972Z,2.10
2017-11-22T13:12:45.919Z,3.00
2017-11-22T13:17:55.201Z,2.73
2017-11-22T13:20:21.458Z,2.60
2017-11-22T13:22:48.060Z,2.27
2017-11-22T13:25:14.262Z,2.33
2017-11-22T13:27:40.406Z,2.60
2017-11-22T13:30:06.934Z,2.20
2017-11-22T13:32:33.902Z,2.37
2017-11-22T13:35:00.305Z,2.90
2017-11-22T13:37:26.427Z,2.43
2017-11-22T13:39:52.691Z,2.47
2017-11-22T13:42:20.817Z,2.77
2017-11-22T13:44:46.983Z,2.77
2017-11-22T13:47:13.049Z,2.27
2017-11-22T13:49:39.339Z,2.50
2017-11-22T13:52:05.478Z,2.47
2017-11-22T13:54:31.593Z,2.80
2017-11-22T13:56:57.784Z,2.23
2017-11-22T13:59:23.893Z,6.17
2017-11-22T14:01:50.228Z,2.90
2017-11-22T14:04:16.675Z,2.50
2017-11-22T14:06:42.797Z,2.80
2017-11-22T14:09:09.242Z,4.37
2017-11-22T14:11:35.419Z,5.10
2017-11-22T14:14:01.711Z,5.53
2017-11-22T14:16:27.810Z,4.63
2017-11-22T14:18:54.114Z,4.23
2017-11-22T14:21:21.014Z,3.90
2017-11-22T14:23:47.618Z,3.43
2017-11-22T14:26:13.679Z,2.80
2017-11-22T14:28:39.848Z,3.43
2017-11-22T14:31:05.947Z,2.97
2017-11-22T14:33:32.157Z,2.60
2017-11-22T14:35:58.299Z,2.17
2017-11-22T14:38:24.561Z,2.80
2017-11-22T14:40:50.692Z,2.13
2017-11-22T14:43:16.782Z,1.97
2017-11-22T14:45:42.923Z,2.80
2017-11-22T14:48:09.358Z,3.90
2017-11-22T14:50:35.537Z,2.73
2017-11-22T14:53:01.778Z,1.97
2017-11-22T14:55:27.993Z,2.80
2017-11-22T14:57:55.362Z,2.10
2017-11-22T15:00:21.750Z,2.37
2017-11-22T15:02:47.883Z,1.77
2017-11-22T15:07:46.977Z,1.90
2017-11-22T15:10:13.183Z,1.73
2017-11-22T15:12:39.386Z,2.30
2017-11-22T15:15:05.818Z,2.13
2017-11-22T15:17:31.987Z,1.90
2017-11-22T15:19:58.076Z,2.10
2017-11-22T15:22:24.205Z,2.77
2017-11-22T15:24:50.532Z,1.97
2017-11-22T15:27:16.777Z,3.20
2017-11-22T15:29:43.173Z,2.50
2017-11-22T15:32:09.298Z,2.13
2017-11-22T15:34:35.443Z,2.17
2017-11-22T15:37:01.627Z,2.10
2017-11-22T15:39:27.888Z,2.40
2017-11-22T15:41:54.050Z,2.27
2017-11-22T15:44:20.134Z,2.10
2017-11-22T15:46:46.267Z,3.13
2017-11-22T15:49:13.075Z,3.57
2017-11-22T15:51:39.435Z,2.07
2017-11-22T15:54:05.613Z,2.40
2017-11-22T15:56:31.847Z,3.07
2017-11-22T15:58:57.924Z,2.67
2017-11-22T16:01:24.119Z,2.90
2017-11-22T16:03:50.292Z,2.83
2017-11-22T16:06:16.484Z,2.70
2017-11-22T16:11:16.613Z,2.87
2017-11-22T16:13:42.897Z,3.00
2017-11-22T16:16:09.230Z,2.70
2017-11-22T16:18:35.502Z,2.63
2017-11-22T16:21:03.663Z,2.63
2017-11-22T16:23:29.754Z,2.40
2017-11-22T16:25:56.247Z,2.20
2017-11-22T16:28:22.372Z,1.90
2017-11-22T16:30:48.491Z,2.70
2017-11-22T16:33:15.858Z,2.30
2017-11-22T16:35:45.767Z,2.90
2017-11-22T16:38:11.867Z,3.30
2017-11-22T16:40:38.069Z,3.07
2017-11-22T16:43:04.260Z,3.60
2017-11-22T16:45:30.785Z,3.67
2017-11-22T16:47:56.901Z,3.40
2017-11-22T16:50:23.015Z,2.60
2017-11-22T16:52:49.097Z,3.80
2017-11-22T16:55:15.805Z,2.63
2017-11-22T16:57:41.902Z,2.87
2017-11-22T17:00:07.953Z,2.70
2017-11-22T17:02:34.154Z,3.27
2017-11-22T17:05:00.278Z,3.70
2017-11-22T17:07:27.734Z,2.83
2017-11-22T17:09:53.970Z,2.57
2017-11-22T17:12:20.127Z,3.40
2017-11-22T17:14:46.246Z,2.03
2017-11-22T17:17:12.362Z,2.43
2017-11-22T17:19:39.716Z,3.17
2017-11-22T17:22:06.021Z,3.47
2017-11-22T17:24:32.122Z,2.20
2017-11-22T17:26:58.195Z,2.13
2017-11-22T17:29:24.339Z,2.53
2017-11-22T17:31:50.464Z,2.53
2017-11-22T17:34:16.585Z,2.30
2017-11-22T17:36:42.703Z,2.28
2017-11-22T17:39:08.868Z,2.10
2017-11-22T17:41:37.742Z,2.30
2017-11-22T17:44:03.874Z,2.50
2017-11-22T17:46:30.865Z,1.90
2017-11-22T17:48:57.005Z,2.03
2017-11-22T17:51:23.111Z,1.80
2017-11-22T17:53:49.202Z,1.62
2017-11-22T17:56:15.295Z,2.08
2017-11-22T17:58:41.365Z,2.05
2017-11-22T18:01:07.554Z,1.95
2017-11-22T18:03:33.679Z,2.10
2017-11-22T18:06:00.031Z,2.00
2017-11-22T18:08:26.444Z,2.07
2017-11-22T18:10:52.864Z,1.80
2017-11-22T18:15:50.050Z,2.45
2017-11-22T18:18:16.176Z,2.12
2017-11-22T18:20:42.405Z,2.00
2017-11-22T18:23:08.633Z,2.08
2017-11-22T18:25:34.804Z,1.80
2017-11-22T18:28:01.082Z,2.40
2017-11-22T18:30:27.299Z,1.90
2017-11-22T18:32:53.496Z,2.37
2017-11-22T18:35:19.667Z,2.20
2017-11-22T18:37:45.985Z,2.70
2017-11-22T18:40:12.193Z,3.17
2017-11-22T18:42:38.338Z,2.65
2017-11-22T18:45:04.781Z,2.10
2017-11-22T18:47:31.083Z,2.08
2017-11-22T18:49:57.137Z,2.28
2017-11-22T18:52:23.247Z,2.28
2017-11-22T18:54:49.378Z,2.55
2017-11-22T18:57:15.534Z,2.17
2017-11-22T18:59:41.693Z,1.92
2017-11-22T19:02:07.815Z,2.22
2017-11-22T19:04:33.962Z,2.20
2017-11-22T19:07:00.111Z,2.35
2017-11-22T19:09:26.344Z,1.90
2017-11-22T19:11:52.404Z,2.08
2017-11-22T19:14:18.490Z,1.92
2017-11-22T19:16:44.647Z,1.80
2017-11-22T19:19:10.684Z,2.03
2017-11-22T19:21:36.765Z,1.95
2017-11-22T19:24:02.911Z,2.15
2017-11-22T19:26:29.056Z,1.92
2017-11-22T19:28:55.191Z,1.90
2017-11-22T19:31:21.334Z,1.90
2017-11-22T19:33:57.540Z,2.00
2017-11-22T19:36:23.640Z,2.33
2017-11-22T19:38:49.731Z,1.90
2017-11-22T19:41:15.825Z,2.28
2017-11-22T19:43:41.994Z,2.00
2017-11-22T19:46:08.206Z,1.70
2017-11-22T19:48:34.419Z,2.28
2017-11-22T19:51:00.736Z,1.62
2017-11-22T19:53:26.947Z,1.65
2017-11-22T19:55:53.174Z,1.85
2017-11-22T19:58:19.220Z,1.98
2017-11-22T20:00:45.366Z,1.90
2017-11-22T20:03:11.541Z,1.42
2017-11-22T20:05:37.643Z,2.40
2017-11-22T20:08:15.864Z,2.35
2017-11-22T20:10:41.973Z,2.58
2017-11-22T20:13:08.207Z,2.00
2017-11-22T20:15:34.465Z,2.45
2017-11-22T20:18:00.617Z,2.80
2017-11-22T20:20:26.734Z,2.80
2017-11-22T20:22:52.840Z,2.72
2017-11-22T20:25:19.074Z,2.67
2017-11-22T20:27:45.154Z,1.92
2017-11-22T20:30:11.209Z,2.45
2017-11-22T20:32:37.370Z,2.15
2017-11-22T20:35:03.422Z,1.70
2017-11-22T20:37:29.522Z,2.47
2017-11-22T20:39:55.642Z,1.83
2017-11-22T20:42:21.885Z,1.70
2017-11-22T20:44:48.053Z,1.85
2017-11-22T20:47:14.157Z,1.92
2017-11-22T20:49:40.212Z,1.77
2017-11-22T20:52:06.833Z,1.80
2017-11-22T20:54:33.068Z,1.33
2017-11-22T20:56:59.157Z,1.55
2017-11-22T20:59:25.231Z,2.08
2017-11-22T21:01:51.366Z,1.80
2017-11-22T21:04:17.637Z,1.65
2017-11-22T21:06:43.711Z,1.75
2017-11-22T21:09:10.269Z,1.90
2017-11-22T21:11:36.408Z,1.70
2017-11-22T21:14:02.527Z,1.73
2017-11-22T21:16:28.651Z,1.80
2017-11-22T21:18:54.726Z,1.65
2017-11-22T21:21:20.877Z,1.90
2017-11-22T21:23:46.985Z,1.60
2017-11-22T21:26:13.097Z,1.75
2017-11-22T21:28:39.242Z,1.90
2017-11-22T21:31:05.364Z,1.75
2017-11-22T21:33:32.143Z,2.00
2017-11-22T21:35:58.224Z,2.10
2017-11-22T21:38:24.297Z,2.40
2017-11-22T21:40:50.383Z,1.98
2017-11-22T21:43:16.547Z,2.40
2017-11-22T21:45:42.672Z,1.52
2017-11-22T21:48:08.878Z,1.80
2017-11-22T21:50:35.461Z,1.90
2017-11-22T21:53:01.633Z,2.12
2017-11-22T21:55:28.030Z,1.95
2017-11-22T21:57:54.097Z,1.73
2017-11-22T22:00:20.206Z,1.45
2017-11-22T22:02:46.277Z,1.60
2017-11-22T22:05:12.353Z,1.70
2017-11-22T22:07:38.415Z,2.50
2017-11-22T22:10:05.604Z,1.60
2017-11-22T22:12:31.740Z,2.03
2017-11-22T22:14:57.952Z,1.75
2017-11-22T22:17:24.173Z,1.90
2017-11-22T22:19:50.280Z,2.00
2017-11-22T22:22:16.373Z,2.30
2017-11-22T22:24:42.587Z,2.40
2017-11-22T22:27:08.662Z,1.90
2017-11-22T22:29:35.259Z,1.83
2017-11-22T22:32:01.335Z,1.77
2017-11-22T22:34:27.513Z,1.70
2017-11-22T22:36:53.738Z,1.92
2017-11-22T22:39:19.804Z,1.85
2017-11-22T22:41:45.983Z,1.73
2017-11-22T22:44:12.228Z,2.10
2017-11-22T22:46:38.432Z,2.08
2017-11-22T22:49:04.698Z,1.80
2017-11-22T22:51:30.817Z,1.40
2017-11-22T22:53:57.043Z,1.90
2017-11-22T22:56:23.249Z,1.85
2017-11-22T22:58:49.478Z,1.77
2017-11-22T23:01:15.673Z,1.70
2017-11-22T23:03:41.758Z,1.67
2017-11-22T23:06:07.834Z,1.40
2017-11-22T23:08:34.015Z,1.80
2017-11-22T23:11:00.139Z,2.00
2017-11-22T23:13:26.316Z,2.17
2017-11-22T23:15:52.514Z,1.90
2017-11-22T23:18:18.986Z,2.20
2017-11-22T23:20:45.185Z,1.80
2017-11-22T23:23:11.302Z,2.10
2017-11-22T23:25:37.696Z,1.75
2017-11-22T23:28:03.922Z,1.50
2017-11-22T23:30:30.295Z,1.85
2017-11-22T23:32:56.434Z,1.98
2017-11-22T23:35:22.554Z,2.10
2017-11-22T23:37:48.637Z,1.83
2017-11-22T23:40:14.763Z,2.20
2017-11-22T23:42:40.959Z,2.10
2017-11-22T23:45:07.076Z,1.87
2017-11-22T23:47:33.194Z,1.73
2017-11-22T23:49:59.305Z,1.80
2017-11-22T23:52:25.369Z,3.90
2017-11-22T23:54:51.519Z,1.90
2017-11-22T23:57:17.761Z,2.30
2017-11-22T23:59:43.914Z,2.10
